createdAt,value
2019-06-08T00:01:16.413Z,21.42
2019-06-08T00:04:20.711Z,24.20
2019-06-08T00:07:24.631Z,23.15
2019-06-08T00:10:28.540Z,22.77
2019-06-08T00:13:32.469Z,22.13
2019-06-08T00:16:36.330Z,22.30
2019-06-08T00:19:40.210Z,22.17
2019-06-08T00:22:44.066Z,23.80
2019-06-08T00:25:47.900Z,23.77
2019-06-08T00:28:51.799Z,23.90
2019-06-08T00:31:55.636Z,23.42
2019-06-08T00:34:59.527Z,24.98
2019-06-08T00:38:03.380Z,28.10
2019-06-08T00:41:07.259Z,23.83
2019-06-08T00:44:11.099Z,26.25
2019-06-08T00:47:16.286Z,27.05
2019-06-08T00:50:20.994Z,24.40
2019-06-08T00:53:25.326Z,23.30
2019-06-08T00:56:30.006Z,26.30
2019-06-08T00:59:34.026Z,26.80
2019-06-08T01:02:37.867Z,26.15
2019-06-08T01:05:41.802Z,29.02
2019-06-08T01:08:45.668Z,30.02
2019-06-08T01:11:49.586Z,31.53
2019-06-08T01:14:53.419Z,31.17
2019-06-08T01:18:02.592Z,31.00
2019-06-08T01:21:02.777Z,25.82
2019-06-08T01:24:06.691Z,23.95
2019-06-08T01:27:10.537Z,25.05
2019-06-08T01:30:14.996Z,22.55
2019-06-08T01:33:18.841Z,25.50
2019-06-08T01:36:22.823Z,24.77
2019-06-08T01:39:27.266Z,28.57
2019-06-08T01:42:31.894Z,24.45
2019-06-08T01:45:35.772Z,23.37
2019-06-08T01:48:39.640Z,25.67
2019-06-08T01:51:43.487Z,25.27
2019-06-08T01:54:47.362Z,27.30
2019-06-08T01:57:51.212Z,24.45
2019-06-08T02:00:55.081Z,27.40
2019-06-08T02:03:58.931Z,33.58
2019-06-08T02:07:02.796Z,32.05
2019-06-08T02:10:08.681Z,34.10
2019-06-08T02:13:12.539Z,31.40
2019-06-08T02:16:16.542Z,24.83
2019-06-08T02:19:20.340Z,29.50
2019-06-08T02:22:24.214Z,29.52
2019-06-08T02:25:29.432Z,28.77
2019-06-08T02:28:33.669Z,30.73
2019-06-08T02:31:37.869Z,26.20
2019-06-08T02:34:41.868Z,31.60
2019-06-08T02:37:45.779Z,23.55
2019-06-08T02:40:49.660Z,23.22
2019-06-08T02:43:53.567Z,22.83
2019-06-08T02:46:57.625Z,23.43
2019-06-08T02:50:01.711Z,22.37
2019-06-08T02:53:06.039Z,26.73
2019-06-08T02:56:12.819Z,25.20
2019-06-08T02:59:18.339Z,32.20
2019-06-08T03:02:23.882Z,23.17
2019-06-08T03:05:29.717Z,28.38
2019-06-08T03:08:36.330Z,24.87
2019-06-08T03:11:41.872Z,19.65
2019-06-08T03:14:47.255Z,20.07
2019-06-08T03:17:51.101Z,20.73
2019-06-08T03:20:55.017Z,18.48
2019-06-08T03:23:59.156Z,20.07
2019-06-08T03:27:03.059Z,18.95
2019-06-08T03:30:17.572Z,20.20
2019-06-08T03:33:13.354Z,20.55
2019-06-08T03:36:17.375Z,18.52
2019-06-08T03:39:21.227Z,22.60
2019-06-08T03:42:25.087Z,22.65
2019-06-08T03:45:28.966Z,22.52
2019-06-08T03:48:34.884Z,22.45
2019-06-08T03:51:41.832Z,23.92
2019-06-08T03:54:45.233Z,24.03
2019-06-08T03:57:50.781Z,22.20
2019-06-08T04:00:54.648Z,22.23
2019-06-08T04:04:00.140Z,21.80
2019-06-08T04:07:04.181Z,23.75
2019-06-08T04:10:08.116Z,23.95
2019-06-08T04:13:12.062Z,21.80
2019-06-08T04:16:15.911Z,20.88
2019-06-08T04:19:19.806Z,22.13
2019-06-08T04:22:23.673Z,21.15
2019-06-08T04:25:27.577Z,21.02
2019-06-08T04:28:31.465Z,21.77
2019-06-08T04:31:35.351Z,20.70
2019-06-08T04:34:40.882Z,20.65
2019-06-08T04:37:46.778Z,21.10
2019-06-08T04:40:50.407Z,20.68
2019-06-08T04:43:54.307Z,21.25
2019-06-08T04:46:58.153Z,19.90
2019-06-08T04:50:20.899Z,20.80
2019-06-08T04:53:07.572Z,20.12
2019-06-08T04:56:11.459Z,20.70
2019-06-08T04:59:15.294Z,20.70
2019-06-08T05:02:19.165Z,19.60
2019-06-08T05:05:23.010Z,17.57
2019-06-08T05:08:26.855Z,16.65
2019-06-08T05:11:30.706Z,16.50
2019-06-08T05:14:34.522Z,15.18
2019-06-08T05:17:39.287Z,13.65
2019-06-08T05:20:45.518Z,13.00
2019-06-08T05:23:57.916Z,11.78
2019-06-08T05:26:54.308Z,11.50
2019-06-08T05:29:58.254Z,11.28
2019-06-08T05:33:02.151Z,11.00
2019-06-08T05:36:06.049Z,10.85
2019-06-08T05:39:10.068Z,10.70
2019-06-08T05:42:13.885Z,9.73
2019-06-08T05:45:17.990Z,9.35
2019-06-08T05:48:21.845Z,8.78
2019-06-08T05:51:25.761Z,8.03
2019-06-08T05:54:29.731Z,8.80
2019-06-08T05:57:33.568Z,11.80
2019-06-08T06:00:37.407Z,12.65
2019-06-08T06:03:42.276Z,10.00
2019-06-08T06:06:46.627Z,7.12
2019-06-08T06:09:51.106Z,7.20
2019-06-08T06:12:55.286Z,7.25
2019-06-08T06:15:59.182Z,6.55
2019-06-08T06:19:03.548Z,6.60
2019-06-08T06:22:07.465Z,6.25
2019-06-08T06:25:12.152Z,6.50
2019-06-08T06:28:16.013Z,6.80
2019-06-08T06:31:19.890Z,6.15
2019-06-08T06:34:23.723Z,6.50
2019-06-08T06:37:27.586Z,6.58
2019-06-08T06:40:31.484Z,6.12
2019-06-08T06:43:35.338Z,5.25
2019-06-08T06:46:39.180Z,5.33
2019-06-08T06:49:44.453Z,5.40
2019-06-08T06:52:48.953Z,4.47
2019-06-08T06:55:53.382Z,4.25
2019-06-08T06:58:57.380Z,4.20
2019-06-08T07:02:01.468Z,4.03
2019-06-08T07:05:07.158Z,4.25
2019-06-08T07:08:10.982Z,4.20
2019-06-08T07:11:15.196Z,4.00
2019-06-08T07:14:19.110Z,4.60
2019-06-08T07:17:23.050Z,4.25
2019-06-08T07:20:26.968Z,4.20
2019-06-08T07:23:30.888Z,4.40
2019-06-08T07:26:34.715Z,4.00
2019-06-08T07:29:38.610Z,4.20
2019-06-08T07:32:42.435Z,4.28
2019-06-08T07:35:47.003Z,4.03
2019-06-08T07:38:51.934Z,4.17
2019-06-08T07:41:56.011Z,4.22
2019-06-08T07:45:00.424Z,4.03
2019-06-08T07:48:04.686Z,4.10
2019-06-08T07:51:08.568Z,4.08
2019-06-08T07:54:12.464Z,3.58
2019-06-08T07:57:16.376Z,3.95
2019-06-08T08:00:20.336Z,4.15
2019-06-08T08:03:24.186Z,4.37
2019-06-08T08:06:30.345Z,4.50
2019-06-08T08:09:33.767Z,4.80
2019-06-08T08:12:37.715Z,4.47
2019-06-08T08:15:41.573Z,5.20
2019-06-08T08:18:45.457Z,5.53
2019-06-08T08:21:51.851Z,5.00
2019-06-08T08:24:57.931Z,5.22
2019-06-08T08:28:01.055Z,5.30
2019-06-08T08:31:05.071Z,5.55
2019-06-08T08:34:09.170Z,4.70
2019-06-08T08:37:13.116Z,4.20
2019-06-08T08:40:17.850Z,4.42
2019-06-08T08:43:23.102Z,4.35
2019-06-08T08:46:28.565Z,4.45
2019-06-08T08:49:33.590Z,3.85
2019-06-08T08:52:40.772Z,4.05
2019-06-08T08:55:43.357Z,4.17
2019-06-08T08:58:47.772Z,4.10
2019-06-08T09:01:52.878Z,4.03
2019-06-08T09:04:59.670Z,4.92
2019-06-08T09:08:03.733Z,4.50
2019-06-08T09:11:08.288Z,4.10
2019-06-08T09:14:14.022Z,4.22
2019-06-08T09:17:18.188Z,4.22
2019-06-08T09:20:22.246Z,3.95
2019-06-08T09:23:27.998Z,3.85
2019-06-08T09:26:31.658Z,3.87
2019-06-08T09:29:35.572Z,4.37
2019-06-08T09:32:39.590Z,4.33
2019-06-08T09:35:43.489Z,4.60
2019-06-08T09:38:47.905Z,5.10
2019-06-08T09:41:53.665Z,5.20
2019-06-08T09:45:00.379Z,4.80
2019-06-08T09:48:05.539Z,5.10
2019-06-08T09:51:09.314Z,5.42
2019-06-08T09:54:13.480Z,5.15
2019-06-08T09:57:18.809Z,4.40
2019-06-08T10:00:26.389Z,4.33
2019-06-08T10:03:30.835Z,4.83
2019-06-08T10:06:34.086Z,4.60
2019-06-08T10:09:38.199Z,4.72
2019-06-08T10:12:42.233Z,4.92
2019-06-08T10:15:48.734Z,5.17
2019-06-08T10:18:51.675Z,5.40
2019-06-08T10:21:56.778Z,4.90
2019-06-08T10:25:04.139Z,4.85
2019-06-08T10:28:11.333Z,4.87
2019-06-08T10:31:11.801Z,4.95
2019-06-08T10:34:15.676Z,5.12
2019-06-08T10:37:19.610Z,5.17
2019-06-08T10:40:23.535Z,5.25
2019-06-08T10:43:28.919Z,5.40
2019-06-08T10:46:32.875Z,4.90
2019-06-08T10:49:38.439Z,5.05
2019-06-08T10:52:42.512Z,4.72
2019-06-08T10:55:48.191Z,5.65
2019-06-08T10:58:51.853Z,5.15
2019-06-08T11:01:55.774Z,5.00
2019-06-08T11:05:04.727Z,5.08
2019-06-08T11:08:12.977Z,4.75
2019-06-08T11:11:12.613Z,4.37
2019-06-08T11:14:18.449Z,4.20
2019-06-08T11:17:22.067Z,4.72
2019-06-08T11:20:27.594Z,4.87
2019-06-08T11:23:31.426Z,5.33
2019-06-08T11:26:40.038Z,5.60
2019-06-08T11:29:41.670Z,5.80
2019-06-08T11:32:47.904Z,5.08
2019-06-08T11:35:51.048Z,5.83
2019-06-08T11:38:55.059Z,5.72
2019-06-08T11:42:00.277Z,6.12
2019-06-08T11:45:11.153Z,6.65
2019-06-08T11:48:14.776Z,6.05
2019-06-08T11:51:18.640Z,6.40
2019-06-08T11:54:36.183Z,6.10
2019-06-08T11:57:28.493Z,6.25
2019-06-08T12:01:01.789Z,6.00
2019-06-08T12:04:09.837Z,6.35
2019-06-08T12:07:14.418Z,5.75
2019-06-08T12:10:18.257Z,6.72
2019-06-08T12:13:22.170Z,6.33
2019-06-08T12:16:28.090Z,6.65
2019-06-08T12:19:31.678Z,6.30
2019-06-08T12:22:37.719Z,5.85
2019-06-08T12:25:41.119Z,5.75
2019-06-08T12:28:45.022Z,6.00
2019-06-08T12:31:54.042Z,6.08
2019-06-08T12:34:59.759Z,5.75
2019-06-08T12:38:03.191Z,6.03
2019-06-08T12:41:09.135Z,5.97
2019-06-08T12:44:15.092Z,6.22
2019-06-08T12:47:25.832Z,5.90
2019-06-08T12:50:23.745Z,5.83
2019-06-08T12:53:28.273Z,6.50
2019-06-08T12:56:32.272Z,6.20
2019-06-08T12:59:38.310Z,6.08
2019-06-08T13:02:41.588Z,6.30
2019-06-08T13:05:45.432Z,5.80
2019-06-08T13:08:49.245Z,5.90
2019-06-08T13:11:55.750Z,5.97
2019-06-08T13:14:58.599Z,6.83
2019-06-08T13:18:02.521Z,6.60
2019-06-08T13:21:16.658Z,7.05
2019-06-08T13:24:13.074Z,6.30
2019-06-08T13:27:21.135Z,6.90
2019-06-08T13:30:25.826Z,7.20
2019-06-08T13:33:28.252Z,7.30
2019-06-08T13:36:32.208Z,6.78
2019-06-08T13:39:38.649Z,7.03
2019-06-08T13:42:41.565Z,6.75
2019-06-08T13:45:45.373Z,7.10
2019-06-08T13:48:49.247Z,7.67
2019-06-08T13:51:53.086Z,7.05
2019-06-08T13:54:58.324Z,7.40
2019-06-08T13:58:02.285Z,7.72
2019-06-08T14:01:08.859Z,7.85
2019-06-08T14:04:11.618Z,8.50
2019-06-08T14:07:18.861Z,7.87
2019-06-08T14:10:24.514Z,8.75
2019-06-08T14:13:34.086Z,7.67
2019-06-08T14:16:34.996Z,8.05
2019-06-08T14:19:38.907Z,8.75
2019-06-08T14:22:42.805Z,8.50
2019-06-08T14:25:53.692Z,8.23
2019-06-08T14:28:52.132Z,9.35
2019-06-08T14:31:57.808Z,9.83
2019-06-08T14:35:02.975Z,9.70
2019-06-08T14:38:07.007Z,10.03
2019-06-08T14:41:10.885Z,10.00
2019-06-08T14:44:14.750Z,10.58
2019-06-08T14:47:18.745Z,10.48
2019-06-08T14:50:22.913Z,10.08
2019-06-08T14:53:26.861Z,10.53
2019-06-08T14:56:31.792Z,11.12
2019-06-08T14:59:35.686Z,9.75
2019-06-08T15:02:39.541Z,8.78
2019-06-08T15:05:43.387Z,9.08
2019-06-08T15:08:50.060Z,8.75
2019-06-08T15:11:52.704Z,8.05
2019-06-08T15:14:58.036Z,8.55
2019-06-08T15:18:04.797Z,8.28
2019-06-08T15:21:07.926Z,7.37
2019-06-08T15:24:11.890Z,7.20
2019-06-08T15:27:20.960Z,6.55
2019-06-08T15:30:21.690Z,5.00
2019-06-08T15:33:26.974Z,5.17
2019-06-08T15:36:32.570Z,4.90
2019-06-08T15:39:38.643Z,4.80
2019-06-08T15:42:42.362Z,4.58
2019-06-08T15:45:51.060Z,4.47
2019-06-08T15:48:51.783Z,4.75
2019-06-08T15:51:57.781Z,4.58
2019-06-08T15:55:01.663Z,4.15
2019-06-08T15:58:05.680Z,3.98
2019-06-08T16:01:09.686Z,4.20
2019-06-08T16:04:13.521Z,3.40
2019-06-08T16:07:17.620Z,3.52
2019-06-08T16:10:21.738Z,4.15
2019-06-08T16:13:26.722Z,3.90
2019-06-08T16:16:31.137Z,3.83
2019-06-08T16:19:35.954Z,3.70
2019-06-08T16:22:39.946Z,3.58
2019-06-08T16:25:43.790Z,3.25
2019-06-08T16:28:47.761Z,3.10
2019-06-08T16:31:51.781Z,3.20
2019-06-08T16:34:55.586Z,2.98
2019-06-08T16:37:59.443Z,3.50
2019-06-08T16:41:03.305Z,3.87
2019-06-08T16:44:07.507Z,3.50
2019-06-08T16:47:11.470Z,3.35
2019-06-08T16:50:24.150Z,3.30
2019-06-08T16:53:21.192Z,3.42
2019-06-08T16:56:25.025Z,3.30
2019-06-08T16:59:30.150Z,3.35
2019-06-08T17:02:34.856Z,2.98
2019-06-08T17:05:39.115Z,3.15
2019-06-08T17:08:43.021Z,3.12
2019-06-08T17:11:46.871Z,2.80
2019-06-08T17:14:50.729Z,3.22
2019-06-08T17:17:54.577Z,3.10
2019-06-08T17:20:58.552Z,3.10
2019-06-08T17:24:02.461Z,3.65
2019-06-08T17:27:06.441Z,3.80
2019-06-08T17:30:10.926Z,3.67
2019-06-08T17:33:14.937Z,4.12
2019-06-08T17:36:18.756Z,4.55
2019-06-08T17:39:22.729Z,4.08
2019-06-08T17:42:26.533Z,4.10
2019-06-08T17:45:30.387Z,5.10
2019-06-08T17:48:34.881Z,4.35
2019-06-08T17:51:39.240Z,4.10
2019-06-08T17:54:43.447Z,4.10
2019-06-08T17:57:53.182Z,4.03
2019-06-08T18:00:52.957Z,4.15
2019-06-08T18:03:57.467Z,4.28
2019-06-08T18:07:01.404Z,4.60
2019-06-08T18:10:07.177Z,4.30
2019-06-08T18:13:11.093Z,4.33
2019-06-08T18:16:17.476Z,6.30
2019-06-08T18:19:29.212Z,6.10
2019-06-08T18:22:34.201Z,5.92
2019-06-08T18:25:40.225Z,5.40
2019-06-08T18:28:44.984Z,5.08
2019-06-08T18:31:49.285Z,4.65
2019-06-08T18:34:53.200Z,4.50
2019-06-08T18:37:57.779Z,4.70
2019-06-08T18:41:01.799Z,4.97
2019-06-08T18:44:07.924Z,4.85
2019-06-08T18:47:11.185Z,5.00
2019-06-08T18:50:17.325Z,4.25
2019-06-08T18:53:21.415Z,4.50
2019-06-08T18:56:27.464Z,4.53
2019-06-08T18:59:30.755Z,4.78
2019-06-08T19:02:34.637Z,4.55
2019-06-08T19:05:42.278Z,4.65
2019-06-08T19:08:45.411Z,4.55
2019-06-08T19:11:50.153Z,5.15
2019-06-08T19:14:54.126Z,5.17
2019-06-08T19:17:58.401Z,5.08
2019-06-08T19:21:02.231Z,5.37
2019-06-08T19:24:09.657Z,5.10
2019-06-08T19:27:11.576Z,5.40
2019-06-08T19:30:15.597Z,4.83
2019-06-08T19:33:21.147Z,4.47
2019-06-08T19:36:24.994Z,4.78
2019-06-08T19:39:28.829Z,4.70
2019-06-08T19:42:40.032Z,4.58
2019-06-08T19:45:40.218Z,4.60
2019-06-08T19:48:44.471Z,4.58
2019-06-08T19:51:53.811Z,4.65
2019-06-08T19:54:55.141Z,7.20
2019-06-08T19:57:59.067Z,8.10
2019-06-08T20:01:02.982Z,9.05
2019-06-08T20:04:07.370Z,7.90
2019-06-08T20:07:11.514Z,6.08
2019-06-08T20:10:17.678Z,6.00
2019-06-08T20:13:21.600Z,5.83
2019-06-08T20:16:27.732Z,5.47
2019-06-08T20:19:31.122Z,5.40
2019-06-08T20:22:37.314Z,6.28
2019-06-08T20:25:41.082Z,5.60
2019-06-08T20:28:46.265Z,5.45
2019-06-08T20:31:52.159Z,5.72
2019-06-08T20:34:59.088Z,5.20
2019-06-08T20:38:03.348Z,5.17
2019-06-08T20:41:07.987Z,5.28
2019-06-08T20:44:12.264Z,5.20
2019-06-08T20:47:17.906Z,4.78
2019-06-08T20:50:24.334Z,5.20
2019-06-08T20:53:28.932Z,4.80
2019-06-08T20:56:37.030Z,4.90
2019-06-08T20:59:39.986Z,4.87
2019-06-08T21:02:45.650Z,4.80
2019-06-08T21:05:51.428Z,4.58
2019-06-08T21:08:57.652Z,5.10
2019-06-08T21:12:01.969Z,4.40
2019-06-08T21:15:07.732Z,4.70
2019-06-08T21:18:11.768Z,4.92
2019-06-08T21:21:17.549Z,4.70
2019-06-08T21:24:21.966Z,5.00
2019-06-08T21:27:27.697Z,5.75
2019-06-08T21:30:32.438Z,5.78
2019-06-08T21:33:37.959Z,5.37
2019-06-08T21:36:41.974Z,5.65
2019-06-08T21:39:50.437Z,6.53
2019-06-08T21:42:53.895Z,7.22
2019-06-08T21:46:00.904Z,6.78
2019-06-08T21:49:02.990Z,7.03
2019-06-08T21:52:07.298Z,7.50
2019-06-08T21:55:11.690Z,7.22
2019-06-08T21:58:17.739Z,7.97
2019-06-08T22:01:21.146Z,7.47
2019-06-08T22:04:27.261Z,7.78
2019-06-08T22:07:30.496Z,7.83
2019-06-08T22:10:34.345Z,7.85
2019-06-08T22:13:38.337Z,7.70
2019-06-08T22:16:42.266Z,7.50
2019-06-08T22:19:47.489Z,7.90
2019-06-08T22:22:51.954Z,7.83
2019-06-08T22:25:59.222Z,8.18
2019-06-08T22:29:03.638Z,7.78
2019-06-08T22:32:07.848Z,8.13
2019-06-08T22:35:11.785Z,8.15
2019-06-08T22:38:17.601Z,7.87
2019-06-08T22:41:21.145Z,7.83
2019-06-08T22:44:25.031Z,7.30
2019-06-08T22:47:28.862Z,7.95
2019-06-08T22:50:32.730Z,7.92
2019-06-08T22:53:38.349Z,8.50
2019-06-08T22:56:42.042Z,7.92
2019-06-08T22:59:47.703Z,8.35
2019-06-08T23:02:51.471Z,8.78
2019-06-08T23:05:59.171Z,8.78
2019-06-08T23:09:02.975Z,8.00
2019-06-08T23:12:09.288Z,7.60
2019-06-08T23:15:12.371Z,7.77
2019-06-08T23:18:17.908Z,8.07
2019-06-08T23:21:21.698Z,7.28
2019-06-08T23:24:27.594Z,7.50
2019-06-08T23:27:31.568Z,7.30
2019-06-08T23:30:35.417Z,7.20
2019-06-08T23:33:39.274Z,7.37
2019-06-08T23:36:57.622Z,7.28
2019-06-08T23:39:48.754Z,7.13
2019-06-08T23:42:52.620Z,7.15
2019-06-08T23:45:58.294Z,6.95
2019-06-08T23:49:03.657Z,7.03
2019-06-08T23:52:10.399Z,6.60
2019-06-08T23:55:13.387Z,7.10
2019-06-08T23:58:17.663Z,6.30
